Hama, Syria
Current Conditions -  °F | °C
As of 11:00 AM on Wednesday 26 Nov 2014 (Local Time) from OSLK Reporting Station
Thunderstorm Thunderstorm  
Wind Chill: 52°   Ceiling: 3000
Heat Index: 52°   Visibility: 4mi
Dew Point: 48°   Wind: 12mph
Humidity: 88%   Direction: 210°SSW
Pressure: 29.77"   Gusts: 23mph
Location:  35.13°N, 36.75°E
Report Text: OSLK 260800Z 21010G20KT 6000 TSRA SCT026CB BKN030 OVC100 11/09 Q1008
Loading
Personal Weather Stations






























Interactive Weather Map New forecast layout! Learn more

10-Day Weather Forecast

Advertisements
Track Severe Weather on mobile